Flight Track Log - Related Links

Times and Time Zones

All times are in EDT time to prevent confusion due to time zone crossing. See the N483ER flight status page for this flight to view local times or setup timezone preferences in your user account.

Time Position Orientation Groundspeed Altitude Reporting Facility
EDT Latitude Longitude Course Direction KTS MPH feet Rate Location/Type
Wed 12:02:16 PM 28.1167 -80.8000 360° North 113 130 3,200  Level Orlando TRACON
Wed 12:03:59 PM 28.1500 -80.8000 360° North 94 108 4,000 477 Climbing Orlando TRACON
Wed 12:04:47 PM 28.1833 -80.8000 319° Northwest 90 104 4,400 474 Climbing Orlando TRACON
Wed 12:05:53 PM 28.2000 -80.8167 360° North 88 101 4,900 333 Climbing Orlando TRACON
Wed 12:06:53 PM 28.2333 -80.8167 360° North 110 127 5,100 50 Climbing Orlando TRACON
Wed 12:07:53 PM 28.2667 -80.8167 336° Northwest 114 131 5,000 -48 Descending Orlando TRACON
Wed 12:08:59 PM 28.3000 -80.8333 24° Northeast 116 133 5,000  Level Orlando TRACON
Wed 12:09:54 PM 28.3333 -80.8167 41° Northeast 124 143 5,000  Level Orlando TRACON
Wed 12:10:54 PM 28.3500 -80.8000 360° North 122 140 5,000  Level Orlando TRACON
Wed 12:11:59 PM 28.4000 -80.8000 336° Northwest 114 131 5,000  Level Orlando TRACON
Wed 12:13:06 PM 28.4333 -80.8167 360° North 114 131 5,000 -47 Level Orlando TRACON
Wed 12:14:06 PM 28.4500 -80.8167 336° Northwest 114 131 4,900 -56 Descending Orlando TRACON
Wed 12:14:54 PM 28.4833 -80.8333 336° Northwest 114 131 4,900 -53 Level Orlando TRACON
Wed 12:16:00 PM 28.5167 -80.8500 360° North 113 130 4,800 53 Descending Orlando TRACON
Wed 12:16:48 PM 28.5333 -80.8500 360° North 109 125 5,000 158 Climbing Orlando TRACON
Wed 12:17:54 PM 28.5667 -80.8500 336° Northwest 109 125 5,100  Climbing Orlando TRACON
Wed 12:18:54 PM 28.6000 -80.8667 360° North 127 146 5,000 -53 Descending Orlando TRACON
Wed 12:19:48 PM 28.6333 -80.8667 336° Northwest 123 142 5,000 -105 Level Orlando TRACON
Wed 12:20:48 PM 28.6667 -80.8833 360° North 126 145 4,800  Descending Orlando TRACON
Wed 12:21:48 PM 28.7000 -80.8833 336° Northwest 111 128 5,000 95 Climbing Orlando TRACON
Wed 12:22:54 PM 28.7333 -80.9000 336° Northwest 113 130 5,000 48 Level Orlando TRACON
Wed 12:23:54 PM 28.7667 -80.9167 331° Northwest 119 137 5,100 31 Climbing Orlando TRACON
Wed 12:26:08 PM 28.8219 -80.9517 353° North 115 132 5,100  Level Jacksonville Center
Wed 12:27:02 PM 28.8533 -80.9558 North 120 138 5,100 -52 Level Jacksonville Center
Wed 12:28:03 PM 28.8867 -80.9553 North 120 138 5,000 -103 Descending Jacksonville Center
Wed 12:28:58 PM 28.9158 -80.9547 North 122 140 4,900 -52 Descending Jacksonville Center
Wed 12:29:59 PM 28.9492 -80.9492 348° North 119 137 4,900 -234 Level Jacksonville Center
Wed 12:31:06 PM 28.9869 -80.9581 336° Northwest 122 140 4,400 -756 Descending Jacksonville Center
Wed 12:32:06 PM 29.0183 -80.9739 334° Northwest 122 140 3,300 -843 Descending Jacksonville Center
Wed 12:33:07 PM 29.0478 -80.9900 336° Northwest 118 136 2,700 -541 Descending Jacksonville Center
Wed 12:34:08 PM 29.0753 -81.0039 339° North 109 125 2,200 -590 Descending Jacksonville Center
Wed 12:35:09 PM 29.1067 -81.0175 332° Northwest 106 122 1,500 -590 Descending Jacksonville Center
Wed 12:36:10 PM 29.1297 -81.0314 339° North 101 116 1,000 -446 Descending Jacksonville Center
Wed 12:37:10 PM 29.1550 -81.0428 357° North 99 114 600 -283 Descending Jacksonville Center
Wed 12:38:17 PM 29.1822 -81.0444 259° West 86 99 400 -179 Descending Jacksonville Center
Wed 12:46:00 PM 29.1384 -81.3018 83° East  Level Estimated
Wed 12:47:00 PM 29.1667 -81.0500 83° East  Level FlightAware Approximate

Login

Don't have an account? Register now (free) for customized features, flight alerts, and more!